Skip Navigation Links Skip Navigation Links

Current Weather

Whiteside Co Arpt-Jos H Bittorf Fld, Sterling/Rockfalls, Ill.

For information only: do not use for flight planning or navigation.
Latest weather
Observation time Friday, February 28, 2020 4:56 AM CST
Local time Friday, February 28, 2020 5:52 AM CST
Flight conditions Visual Meteorological Conditions
Winds
Wind direction West-Northwest (290°)
Wind speed 5 mph
Visibility 10 mi.
Present weather light snow
Sky condition
Ceiling 3,600 ft. broken clouds
Cloud layer broken clouds 3,600 ft.
Cloud layer overcast 4,700 ft.
Temperature 21°F
Dewpoint 16°F
Altimeter 30.06 in.Hg
Precipitation
Snow began 4:52 AM
Precipitation last hour trace
Derived measurements
Relative humidity 81%
Wind chill 15°F
Density altitude -2077 ft.
Sea-level pressure 29.67 in.Hg
Remarks
Automated weather observing station with precipitation discriminator.
Freezing rain sensor not operating.
METAR KSQI 281056Z 29004KT 10SM -SN BKN036 OVC047 M06/M09 A3006 RMK AO2 SNB52 SLP047 P0000 T10611089 FZRANO

Settings

Location code

InnerDrive.Weather 4.0.6770.0 Release CLR 4.0.30319.42000
Copyright ©2018 Inner Drive Technology. All rights reserved. Portions Copyright ©1986-2018 David Braverman.

Find weather

Site navigation


Skip Navigation Links

Place info

Page info

PayPal - The safer, easier way to pay online!

Return home.

Copyright ©2020 Inner Drive Technology. Purveyors of fine, hand-crafted computer software. Page printed 2020-02-28T11:52:56 UTC.